Time;durP1;ratioP1;P1;durP2;ratioP2;P2;SDS_P1;SDS_P2;PMS_P1;PMS_P2;Temp;Humidity;BMP_temperature;BMP_pressure;BME280_temperature;BME280_humidity;BME280_pressure;Samples;Min_cycle;Max_cycle;Signal;HPM_P1;HPM_P2
2022/04/22 00:01:48;;;;;;;41.33;35.47;;;;;;;;;;4881141;29;20025;-76
2022/04/22 00:04:14;;;;;;;43.75;35.95;;;;;;;;;;4881109;29;20037;-75
2022/04/22 00:06:40;;;;;;;52.88;35.25;;;;;;;;;;4880849;29;20029;-77
2022/04/22 00:09:06;;;;;;;46.10;38.03;;;;;;;;;;4881201;29;20032;-77
2022/04/22 00:11:32;;;;;;;42.92;35.28;;;;;;;;;;4881841;29;20029;-77
2022/04/22 00:14:03;;;;;;;42.40;33.72;;;;;;;;;;4881383;29;20884;-77
2022/04/22 00:16:30;;;;;;;39.65;32.70;;;;;;;;;;4895860;29;20070;-77
2022/04/22 00:18:57;;;;;;;41.85;34.45;;;;;;;;;;4895466;29;20025;-77
2022/04/22 00:21:23;;;;;;;44.88;35.17;;;;;;;;;;4881924;29;20035;-77
2022/04/22 00:23:50;;;;;;;49.05;34.55;;;;;;;;;;4895088;29;20493;-77
2022/04/22 00:26:16;;;;;;;48.08;37.42;;;;;;;;;;4895415;29;20080;-77
2022/04/22 00:28:42;;;;;;;49.10;36.72;;;;;;;;;;4881161;29;20057;-77
2022/04/22 00:31:08;;;;;;;50.03;34.33;;;;;;;;;;4895508;29;20033;-78
2022/04/22 00:33:35;;;;;;;39.92;32.05;;;;;;;;;;4894974;29;20088;-77
2022/04/22 00:36:01;;;;;;;41.03;31.83;;;;;;;;;;4880699;29;20025;-78
2022/04/22 00:38:28;;;;;;;44.40;33.92;;;;;;;;;;4897866;29;20025;-76
2022/04/22 00:40:55;;;;;;;45.13;33.15;;;;;;;;;;4895383;29;20053;-77
2022/04/22 00:43:22;;;;;;;40.30;32.95;;;;;;;;;;4880434;29;20029;-78
2022/04/22 00:45:49;;;;;;;37.15;29.98;;;;;;;;;;4880502;29;20073;-76
2022/04/22 00:48:16;;;;;;;43.20;33.08;;;;;;;;;;4880031;29;20025;-76
2022/04/22 00:50:42;;;;;;;42.22;31.73;;;;;;;;;;4891607;29;20053;-76
2022/04/22 00:53:09;;;;;;;41.33;34.38;;;;;;;;;;4873612;29;20021;-75
2022/04/22 00:55:36;;;;;;;40.67;31.55;;;;;;;;;;4862157;29;20086;-75
2022/04/22 00:58:03;;;;;;;39.78;31.80;;;;;;;;;;4876865;29;20508;-75
2022/04/22 01:00:29;;;;;;;41.75;30.23;;;;;;;;;;4877862;29;20032;-75
2022/04/22 01:02:55;;;;;;;36.50;30.55;;;;;;;;;;4893416;29;20081;-75
2022/04/22 01:10:54;;;;;;;43.88;30.70;;;;;;;;;;4880037;29;20059;-76
2022/04/22 01:13:20;;;;;;;35.28;29.30;;;;;;;;;;4878687;29;20655;-75
2022/04/22 01:15:46;;;;;;;32.58;27.77;;;;;;;;;;4878733;29;20033;-75
2022/04/22 01:18:14;;;;;;;39.85;28.85;;;;;;;;;;4878731;29;20029;-76
2022/04/22 01:20:40;;;;;;;35.08;27.58;;;;;;;;;;4878590;29;20029;-75
2022/04/22 01:23:06;;;;;;;39.28;27.52;;;;;;;;;;4879678;29;20033;-75
2022/04/22 01:25:32;;;;;;;34.30;28.60;;;;;;;;;;4878589;29;20031;-76
2022/04/22 01:27:59;;;;;;;34.33;28.48;;;;;;;;;;4879858;29;20033;-75
2022/04/22 01:30:26;;;;;;;36.92;25.70;;;;;;;;;;4878358;29;20442;-75
2022/04/22 01:32:54;;;;;;;38.47;28.30;;;;;;;;;;4878779;29;20028;-76
2022/04/22 01:35:20;;;;;;;35.65;27.83;;;;;;;;;;4879833;29;20028;-76
2022/04/22 01:37:47;;;;;;;34.08;27.20;;;;;;;;;;4878691;29;20025;-76
2022/04/22 01:40:13;;;;;;;34.70;28.58;;;;;;;;;;4879593;29;20057;-75
2022/04/22 01:42:39;;;;;;;34.42;27.95;;;;;;;;;;4879614;29;20025;-75
2022/04/22 01:45:06;;;;;;;35.08;26.08;;;;;;;;;;4879757;29;20037;-75
2022/04/22 01:47:32;;;;;;;34.22;26.20;;;;;;;;;;4879336;29;20025;-75
2022/04/22 01:49:59;;;;;;;31.52;26.23;;;;;;;;;;4879458;29;20029;-75
2022/04/22 01:52:25;;;;;;;35.40;27.50;;;;;;;;;;4879402;29;20036;-76
2022/04/22 01:54:54;;;;;;;37.45;28.63;;;;;;;;;;4878166;29;20036;-75
2022/04/22 01:57:20;;;;;;;33.25;25.95;;;;;;;;;;4878507;29;20362;-76
2022/04/22 01:59:48;;;;;;;35.22;26.77;;;;;;;;;;4879952;29;20017;-75
2022/04/22 02:02:15;;;;;;;31.98;26.48;;;;;;;;;;4879191;29;20021;-75
2022/04/22 02:04:41;;;;;;;31.58;26.42;;;;;;;;;;4878196;29;20127;-75
2022/04/22 02:07:07;;;;;;;38.65;28.65;;;;;;;;;;4878898;29;20028;-75
2022/04/22 02:09:33;;;;;;;35.20;29.25;;;;;;;;;;4877787;29;20396;-75
2022/04/22 02:11:59;;;;;;;48.13;39.08;;;;;;;;;;4879611;29;20021;-75
2022/04/22 02:14:25;;;;;;;51.70;37.00;;;;;;;;;;4878475;29;20160;-76
2022/04/22 02:16:55;;;;;;;45.35;33.95;;;;;;;;;;4879644;29;20021;-77
2022/04/22 02:19:21;;;;;;;34.50;26.52;;;;;;;;;;4879554;29;20025;-75
2022/04/22 02:21:47;;;;;;;34.55;25.75;;;;;;;;;;4877956;29;20081;-76
2022/04/22 02:24:13;;;;;;;33.28;27.25;;;;;;;;;;4878979;29;20040;-76
2022/04/22 02:29:24;;;;;;;30.65;26.10;;;;;;;;;;4880159;29;20036;-76
2022/04/22 02:31:53;;;;;;;36.10;28.88;;;;;;;;;;4878339;29;20021;-74
2022/04/22 02:34:23;;;;;;;36.17;27.45;;;;;;;;;;4878254;29;20433;-76
2022/04/22 02:36:50;;;;;;;31.90;28.05;;;;;;;;;;4879024;29;20107;-75
2022/04/22 02:39:16;;;;;;;30.00;25.63;;;;;;;;;;4877776;29;20437;-76
2022/04/22 02:47:12;;;;;;;38.72;31.80;;;;;;;;;;4878357;29;20508;-75
2022/04/22 02:49:38;;;;;;;42.25;34.85;;;;;;;;;;4877197;29;20516;-78
2022/04/22 02:52:05;;;;;;;38.25;31.58;;;;;;;;;;4878477;29;20025;-77
2022/04/22 02:54:34;;;;;;;39.42;30.95;;;;;;;;;;4878400;29;20502;-77
2022/04/22 02:57:00;;;;;;;38.80;32.15;;;;;;;;;;4878079;29;20472;-75
2022/04/22 02:59:26;;;;;;;44.45;37.17;;;;;;;;;;4878378;29;20025;-76
2022/04/22 03:01:53;;;;;;;40.50;34.45;;;;;;;;;;4877175;29;20061;-75
2022/04/22 03:04:19;;;;;;;45.78;34.90;;;;;;;;;;4878125;29;20377;-75
2022/04/22 03:06:45;;;;;;;43.47;35.63;;;;;;;;;;4878354;29;20029;-77
2022/04/22 03:09:11;;;;;;;45.80;36.70;;;;;;;;;;4878193;29;20069;-76
2022/04/22 03:11:37;;;;;;;40.97;34.95;;;;;;;;;;4877338;29;20066;-77
2022/04/22 03:14:05;;;;;;;42.83;33.67;;;;;;;;;;4878863;29;20469;-78
2022/04/22 03:16:31;;;;;;;38.35;33.25;;;;;;;;;;4878665;29;20021;-77
2022/04/22 03:18:58;;;;;;;44.60;36.65;;;;;;;;;;4876847;29;20033;-79
2022/04/22 03:21:24;;;;;;;48.85;38.92;;;;;;;;;;4879795;29;20537;-78
2022/04/22 03:23:50;;;;;;;44.55;35.88;;;;;;;;;;4882303;29;20120;-79
2022/04/22 03:26:16;;;;;;;39.58;32.13;;;;;;;;;;4882206;29;20029;-77
2022/04/22 03:28:42;;;;;;;43.72;33.67;;;;;;;;;;4882222;29;20029;-77
2022/04/22 03:31:08;;;;;;;40.05;34.53;;;;;;;;;;4882007;29;20092;-78
2022/04/22 03:33:34;;;;;;;40.10;32.05;;;;;;;;;;4880742;29;20056;-78
2022/04/22 03:36:00;;;;;;;34.63;29.60;;;;;;;;;;4881744;29;20077;-77
2022/04/22 03:38:29;;;;;;;39.42;27.67;;;;;;;;;;4880519;29;20036;-78
2022/04/22 03:40:55;;;;;;;39.33;30.45;;;;;;;;;;4882108;29;20049;-78
2022/04/22 03:43:23;;;;;;;34.42;25.63;;;;;;;;;;4881171;29;20043;-77
2022/04/22 03:45:49;;;;;;;35.28;29.20;;;;;;;;;;4882677;29;20017;-78
2022/04/22 03:48:16;;;;;;;32.92;26.58;;;;;;;;;;4881253;29;20033;-78
2022/04/22 03:50:42;;;;;;;29.88;23.75;;;;;;;;;;4880716;29;20033;-77
2022/04/22 03:53:11;;;;;;;31.70;24.60;;;;;;;;;;4882089;29;20036;-77
2022/04/22 03:55:38;;;;;;;34.58;26.23;;;;;;;;;;4882160;29;20065;-78
2022/04/22 03:58:10;;;;;;;36.75;28.40;;;;;;;;;;4880460;29;20032;-76
2022/04/22 04:00:39;;;;;;;37.45;28.20;;;;;;;;;;4880596;29;20425;-76
2022/04/22 04:03:05;;;;;;;35.75;28.00;;;;;;;;;;4881722;29;20018;-77
2022/04/22 04:05:32;;;;;;;33.47;28.48;;;;;;;;;;4881481;29;20073;-76
2022/04/22 04:07:58;;;;;;;29.10;23.98;;;;;;;;;;4881746;29;20111;-77
2022/04/22 04:16:04;;;;;;;40.83;28.65;;;;;;;;;;4881000;29;20088;-76
2022/04/22 04:18:34;;;;;;;54.22;42.65;;;;;;;;;;4881160;29;20112;-77
2022/04/22 04:23:45;;;;;;;51.75;41.80;;;;;;;;;;4881122;29;20494;-76
2022/04/22 04:26:12;;;;;;;61.72;45.53;;;;;;;;;;4880445;29;20025;-77
2022/04/22 04:28:39;;;;;;;54.65;43.42;;;;;;;;;;4880649;29;20029;-77
2022/04/22 04:31:11;;;;;;;73.18;53.58;;;;;;;;;;4879733;29;20033;-76
2022/04/22 04:33:37;;;;;;;56.40;46.35;;;;;;;;;;4879941;29;20048;-76
2022/04/22 04:36:04;;;;;;;58.15;45.03;;;;;;;;;;4880391;29;20021;-76
2022/04/22 04:38:30;;;;;;;54.08;42.25;;;;;;;;;;4880731;29;20488;-76
2022/04/22 04:40:56;;;;;;;61.67;44.40;;;;;;;;;;4880126;29;20524;-76
2022/04/22 04:43:22;;;;;;;56.35;41.90;;;;;;;;;;4880563;29;20496;-77
2022/04/22 04:45:51;;;;;;;47.03;38.47;;;;;;;;;;4872459;29;20029;-78
2022/04/22 04:48:18;;;;;;;43.25;35.67;;;;;;;;;;4879272;29;20097;-76
2022/04/22 04:50:44;;;;;;;47.97;37.08;;;;;;;;;;4880493;29;20040;-77
2022/04/22 04:53:11;;;;;;;55.80;38.90;;;;;;;;;;4880552;29;20042;-78
2022/04/22 04:55:37;;;;;;;39.97;33.15;;;;;;;;;;4880468;29;20032;-77
2022/04/22 04:58:04;;;;;;;40.97;34.65;;;;;;;;;;4880151;29;20061;-76
2022/04/22 05:00:30;;;;;;;42.42;34.60;;;;;;;;;;4861905;29;20039;-77
2022/04/22 05:02:56;;;;;;;40.13;30.60;;;;;;;;;;4876151;29;20025;-76
2022/04/22 05:05:23;;;;;;;34.92;28.33;;;;;;;;;;4862450;29;20536;-76
2022/04/22 05:07:57;;;;;;;32.78;28.00;;;;;;;;;;4861694;29;20537;-77
2022/04/22 05:10:24;;;;;;;34.38;25.05;;;;;;;;;;4875725;29;20036;-76
2022/04/22 05:12:50;;;;;;;32.10;25.80;;;;;;;;;;4861266;29;20474;-75
2022/04/22 05:15:20;;;;;;;37.00;27.90;;;;;;;;;;4861491;29;20040;-77
2022/04/22 05:17:47;;;;;;;34.78;27.73;;;;;;;;;;4861537;29;20489;-76
2022/04/22 05:20:14;;;;;;;40.95;29.98;;;;;;;;;;4861048;29;20078;-76
2022/04/22 05:22:40;;;;;;;64.32;48.28;;;;;;;;;;4861376;29;20022;-76
2022/04/22 05:25:07;;;;;;;68.28;47.55;;;;;;;;;;4861736;29;20085;-76
2022/04/22 05:27:34;;;;;;;48.92;38.13;;;;;;;;;;4861280;29;20046;-75
2022/04/22 05:32:48;;;;;;;40.92;29.95;;;;;;;;;;4878870;29;20059;-76
2022/04/22 05:35:15;;;;;;;30.40;21.60;;;;;;;;;;4879911;29;20025;-77
2022/04/22 05:37:44;;;;;;;22.88;17.13;;;;;;;;;;4894052;29;20021;-75
2022/04/22 05:40:11;;;;;;;22.52;16.30;;;;;;;;;;4893929;29;20523;-76
2022/04/22 05:42:40;;;;;;;20.10;15.05;;;;;;;;;;4894134;29;20180;-76
2022/04/22 05:45:07;;;;;;;26.65;15.80;;;;;;;;;;4893007;29;20187;-78
2022/04/22 05:47:33;;;;;;;19.08;14.05;;;;;;;;;;4894123;29;20122;-76
2022/04/22 05:49:59;;;;;;;16.02;11.95;;;;;;;;;;4880290;29;20021;-76
2022/04/22 05:52:26;;;;;;;22.40;10.25;;;;;;;;;;4895781;29;20036;-77
2022/04/22 05:54:53;;;;;;;19.45;13.98;;;;;;;;;;4894779;29;20072;-75
2022/04/22 05:57:19;;;;;;;14.73;12.20;;;;;;;;;;4879711;29;20031;-76
2022/04/22 05:59:46;;;;;;;11.77;9.18;;;;;;;;;;4893807;29;20489;-77
2022/04/22 06:02:12;;;;;;;22.73;11.82;;;;;;;;;;4879452;29;20147;-75
2022/04/22 06:04:38;;;;;;;19.65;14.60;;;;;;;;;;4879702;29;20069;-76
2022/04/22 06:07:04;;;;;;;20.98;13.32;;;;;;;;;;4893681;29;20025;-77
2022/04/22 06:12:14;;;;;;;16.67;9.48;;;;;;;;;;4880023;29;20400;-77
2022/04/22 06:14:41;;;;;;;15.45;9.23;;;;;;;;;;4870451;29;20061;-78
2022/04/22 06:17:07;;;;;;;12.65;9.13;;;;;;;;;;4878931;29;20033;-75
2022/04/22 06:19:33;;;;;;;13.77;8.95;;;;;;;;;;4892995;29;20056;-78
2022/04/22 06:21:59;;;;;;;16.15;8.15;;;;;;;;;;4881270;29;20025;-75
2022/04/22 06:24:25;;;;;;;21.45;9.98;;;;;;;;;;4879943;29;20037;-76
2022/04/22 06:26:51;;;;;;;23.35;9.52;;;;;;;;;;4893315;29;20017;-76
2022/04/22 06:29:17;;;;;;;13.43;8.73;;;;;;;;;;4878885;29;20108;-75
2022/04/22 06:31:43;;;;;;;21.98;12.05;;;;;;;;;;4893241;29;20029;-77
2022/04/22 06:34:10;;;;;;;15.85;8.13;;;;;;;;;;4893560;29;20021;-76
2022/04/22 06:36:36;;;;;;;16.65;8.77;;;;;;;;;;4878792;29;20028;-76
2022/04/22 06:39:02;;;;;;;22.40;9.02;;;;;;;;;;4878614;29;20029;-75
2022/04/22 06:46:59;;;;;;;14.32;6.50;;;;;;;;;;4878749;29;20128;-76
2022/04/22 06:49:25;;;;;;;15.90;10.77;;;;;;;;;;4892595;29;20025;-77
2022/04/22 06:51:51;;;;;;;17.73;7.95;;;;;;;;;;4879109;29;20025;-78
2022/04/22 06:54:17;;;;;;;15.48;8.02;;;;;;;;;;4878465;29;20080;-75
2022/04/22 06:56:49;;;;;;;18.73;9.48;;;;;;;;;;4879283;29;20021;-76
2022/04/22 06:59:21;;;;;;;13.60;9.15;;;;;;;;;;4893216;29;20068;-77
2022/04/22 07:01:48;;;;;;;17.88;8.05;;;;;;;;;;4893096;29;20036;-78
2022/04/22 07:04:14;;;;;;;15.68;8.13;;;;;;;;;;4878875;29;20120;-75
2022/04/22 07:06:44;;;;;;;10.65;7.10;;;;;;;;;;4878540;29;20021;-76
2022/04/22 07:09:10;;;;;;;16.48;7.72;;;;;;;;;;4892667;29;20031;-76
2022/04/22 07:11:37;;;;;;;20.23;8.48;;;;;;;;;;4878664;29;20029;-78
2022/04/22 07:14:04;;;;;;;10.48;7.00;;;;;;;;;;4892773;29;20466;-76
2022/04/22 07:16:30;;;;;;;13.90;7.35;;;;;;;;;;4892216;29;20025;-77
2022/04/22 07:18:57;;;;;;;11.55;6.38;;;;;;;;;;4892295;29;20048;-79
2022/04/22 07:21:23;;;;;;;13.10;7.82;;;;;;;;;;4878293;29;20033;-80
2022/04/22 07:23:50;;;;;;;10.50;6.28;;;;;;;;;;4892128;29;20410;-76
2022/04/22 07:26:17;;;;;;;11.45;7.00;;;;;;;;;;4877926;29;20041;-78
2022/04/22 07:28:45;;;;;;;16.08;7.40;;;;;;;;;;4877777;29;20037;-78
2022/04/22 07:31:11;;;;;;;11.27;7.60;;;;;;;;;;4878405;29;20025;-77
2022/04/22 07:33:37;;;;;;;13.77;7.47;;;;;;;;;;4877921;29;20021;-76
2022/04/22 07:36:04;;;;;;;13.13;7.05;;;;;;;;;;4878039;29;20104;-79
2022/04/22 07:38:30;;;;;;;13.27;7.68;;;;;;;;;;4878641;29;20029;-75
2022/04/22 07:40:56;;;;;;;12.05;7.30;;;;;;;;;;4878854;29;20085;-75
2022/04/22 07:48:56;;;;;;;16.50;8.52;;;;;;;;;;4877932;29;20044;-75
2022/04/22 07:51:23;;;;;;;12.15;7.65;;;;;;;;;;4891053;29;20041;-77
2022/04/22 07:53:49;;;;;;;18.00;7.30;;;;;;;;;;4866028;29;20109;-76
2022/04/22 07:56:15;;;;;;;13.50;6.07;;;;;;;;;;4871738;29;20022;-76
2022/04/22 07:58:41;;;;;;;15.60;7.05;;;;;;;;;;4870986;29;20032;-76
2022/04/22 08:01:08;;;;;;;23.27;10.82;;;;;;;;;;4893506;29;20123;-75
2022/04/22 08:03:36;;;;;;;9.82;7.30;;;;;;;;;;4891092;29;20036;-77
2022/04/22 08:06:02;;;;;;;13.88;6.40;;;;;;;;;;4860123;29;20096;-78
2022/04/22 08:08:30;;;;;;;13.82;7.32;;;;;;;;;;4877212;29;20034;-76
2022/04/22 08:10:56;;;;;;;12.88;6.80;;;;;;;;;;4863128;29;20109;-76
2022/04/22 08:13:24;;;;;;;12.05;6.70;;;;;;;;;;4877632;29;20032;-76
2022/04/22 08:15:50;;;;;;;10.52;6.28;;;;;;;;;;4877521;29;20138;-75
2022/04/22 08:18:17;;;;;;;9.90;6.05;;;;;;;;;;4862710;29;20026;-75
2022/04/22 08:20:43;;;;;;;9.07;5.72;;;;;;;;;;4862620;29;20036;-78
2022/04/22 08:23:09;;;;;;;10.98;5.85;;;;;;;;;;4876487;29;20028;-76
2022/04/22 08:25:35;;;;;;;13.65;6.40;;;;;;;;;;4876403;29;20053;-77
2022/04/22 08:28:03;;;;;;;13.43;7.63;;;;;;;;;;4862291;29;20026;-76
2022/04/22 08:30:29;;;;;;;11.93;6.10;;;;;;;;;;4862393;29;20030;-78
2022/04/22 08:32:56;;;;;;;14.82;6.50;;;;;;;;;;4876703;29;20537;-78
2022/04/22 08:35:22;;;;;;;15.25;6.88;;;;;;;;;;4868974;29;20025;-78
2022/04/22 08:37:48;;;;;;;8.45;6.18;;;;;;;;;;4881981;29;20066;-77
2022/04/22 08:40:14;;;;;;;17.88;6.22;;;;;;;;;;4896827;29;20056;-77
2022/04/22 08:42:41;;;;;;;13.15;6.13;;;;;;;;;;4882879;29;20072;-75
2022/04/22 08:45:08;;;;;;;24.05;11.30;;;;;;;;;;4894476;29;20044;-76
2022/04/22 08:50:19;;;;;;;15.25;6.50;;;;;;;;;;4880245;29;20188;-75
2022/04/22 08:53:05;;;;;;;14.75;6.18;;;;;;;;;;4880352;29;20029;-77
2022/04/22 08:55:32;;;;;;;11.20;6.45;;;;;;;;;;4880359;29;20055;-75
2022/04/22 08:57:58;;;;;;;15.05;6.93;;;;;;;;;;4894489;29;20385;-78
2022/04/22 09:00:27;;;;;;;17.27;7.43;;;;;;;;;;4874240;29;20108;-79
2022/04/22 09:02:59;;;;;;;14.70;6.03;;;;;;;;;;4880066;29;20065;-78
2022/04/22 09:05:26;;;;;;;16.55;7.13;;;;;;;;;;4883401;29;20048;-77
2022/04/22 09:07:53;;;;;;;19.05;8.13;;;;;;;;;;4878128;29;20024;-76
2022/04/22 09:10:19;;;;;;;18.15;6.72;;;;;;;;;;4879597;29;20029;-77
2022/04/22 09:12:52;;;;;;;10.98;5.90;;;;;;;;;;4877016;29;20025;-79
2022/04/22 09:15:22;;;;;;;14.20;6.28;;;;;;;;;;4868339;29;20030;-77
2022/04/22 09:17:48;;;;;;;11.90;5.55;;;;;;;;;;4861393;29;20068;-77
2022/04/22 09:20:15;;;;;;;13.50;6.55;;;;;;;;;;4880294;29;20541;-76
2022/04/22 09:22:45;;;;;;;15.32;5.95;;;;;;;;;;4875797;29;20029;-77
2022/04/22 09:25:11;;;;;;;16.50;7.80;;;;;;;;;;4880082;29;20037;-76
2022/04/22 09:27:38;;;;;;;15.82;5.72;;;;;;;;;;4879942;29;20104;-76
2022/04/22 09:30:09;;;;;;;19.52;8.45;;;;;;;;;;4894325;29;20028;-77
2022/04/22 09:32:37;;;;;;;15.60;6.60;;;;;;;;;;4879869;29;20026;-74
2022/04/22 09:35:10;;;;;;;15.45;8.02;;;;;;;;;;4892028;29;20025;-76
2022/04/22 09:42:38;;;;;;;;;;;;;;;;;;4878059;29;20309;-76
2022/04/22 09:43:17;;;;;;;10.57;6.22;;;;;;;;;;4879123;29;19915;-76
2022/04/22 09:45:43;;;;;;;14.45;5.32;;;;;;;;;;4879398;29;20155;-78
2022/04/22 09:48:17;;;;;;;13.82;6.15;;;;;;;;;;4874155;29;20025;-76
2022/04/22 09:50:53;;;;;;;14.98;5.90;;;;;;;;;;4891314;29;20033;-75
2022/04/22 09:53:47;;;;;;;17.63;7.32;;;;;;;;;;4891794;29;20080;-76
2022/04/22 09:56:16;;;;;;;13.50;5.78;;;;;;;;;;4890643;29;20552;-76
2022/04/22 09:58:42;;;;;;;16.42;6.40;;;;;;;;;;4874712;29;20057;-76
2022/04/22 10:01:08;;;;;;;16.13;5.63;;;;;;;;;;4880404;29;20028;-76
2022/04/22 10:03:34;;;;;;;19.38;5.45;;;;;;;;;;4879870;29;20029;-76
2022/04/22 10:06:01;;;;;;;18.77;5.82;;;;;;;;;;4887500;29;20029;-76
2022/04/22 10:08:30;;;;;;;17.75;5.85;;;;;;;;;;4874039;29;20496;-76
2022/04/22 10:11:00;;;;;;;8.63;5.30;;;;;;;;;;4878376;29;20021;-78
2022/04/22 10:13:30;;;;;;;11.85;5.70;;;;;;;;;;4887514;29;20108;-77
2022/04/22 10:15:56;;;;;;;18.13;5.95;;;;;;;;;;4890664;29;20312;-76
2022/04/22 10:18:23;;;;;;;17.90;7.38;;;;;;;;;;4890491;29;20033;-77
2022/04/22 10:20:49;;;;;;;19.83;10.27;;;;;;;;;;4871485;29;20481;-78
2022/04/22 10:23:15;;;;;;;13.95;6.07;;;;;;;;;;4874201;29;20021;-77
2022/04/22 10:25:41;;;;;;;15.60;6.53;;;;;;;;;;4869919;29;20035;-78
2022/04/22 10:28:09;;;;;;;20.40;6.78;;;;;;;;;;4870181;29;20032;-77
2022/04/22 10:30:35;;;;;;;16.75;7.30;;;;;;;;;;4869201;29;20117;-77
2022/04/22 10:33:02;;;;;;;19.13;7.60;;;;;;;;;;4872005;29;20029;-77
2022/04/22 10:35:29;;;;;;;9.10;5.13;;;;;;;;;;4875463;29;20035;-77
2022/04/22 10:37:56;;;;;;;15.38;4.68;;;;;;;;;;4876031;29;20017;-77
2022/04/22 10:40:23;;;;;;;11.05;5.22;;;;;;;;;;4892254;29;20551;-77
2022/04/22 10:42:50;;;;;;;14.68;4.05;;;;;;;;;;4889647;29;20128;-77
2022/04/22 10:48:17;;;;;;;14.48;7.90;;;;;;;;;;4866295;29;20668;-76
2022/04/22 10:50:53;;;;;;;16.17;7.35;;;;;;;;;;4889537;29;20025;-78
2022/04/22 10:53:24;;;;;;;16.00;6.55;;;;;;;;;;4873755;29;20474;-78
2022/04/22 10:55:50;;;;;;;15.40;8.40;;;;;;;;;;4874367;29;20493;-78
2022/04/22 10:58:16;;;;;;;14.70;5.63;;;;;;;;;;4888496;29;20495;-76
2022/04/22 11:00:46;;;;;;;16.92;7.18;;;;;;;;;;4876480;29;20385;-75
2022/04/22 11:03:16;;;;;;;17.00;8.80;;;;;;;;;;4873937;29;20041;-78
2022/04/22 11:05:48;;;;;;;16.25;5.93;;;;;;;;;;4874619;29;20132;-76
2022/04/22 11:08:18;;;;;;;18.48;7.15;;;;;;;;;;4890562;29;20060;-78
2022/04/22 11:10:48;;;;;;;23.38;5.05;;;;;;;;;;4881111;29;20093;-78
2022/04/22 11:13:29;;;;;;;28.20;9.30;;;;;;;;;;4875550;29;20469;-78
2022/04/22 11:15:58;;;;;;;17.45;7.93;;;;;;;;;;4890425;29;20057;-75
2022/04/22 11:18:25;;;;;;;16.13;7.90;;;;;;;;;;4876263;29;20111;-77
2022/04/22 11:20:52;;;;;;;25.98;11.75;;;;;;;;;;4890653;29;20111;-80
2022/04/22 11:23:19;;;;;;;15.77;10.00;;;;;;;;;;4876278;29;20149;-79
2022/04/22 11:25:46;;;;;;;13.95;8.40;;;;;;;;;;4876517;29;20069;-78
2022/04/22 11:28:14;;;;;;;16.05;5.38;;;;;;;;;;4891070;29;20049;-79
2022/04/22 11:30:40;;;;;;;14.30;5.28;;;;;;;;;;4876766;29;20111;-79
2022/04/22 11:33:13;;;;;;;19.75;4.47;;;;;;;;;;4891405;29;20540;-81
2022/04/22 11:35:39;;;;;;;20.70;8.88;;;;;;;;;;4888208;29;20036;-81
2022/04/22 11:38:06;;;;;;;16.05;4.38;;;;;;;;;;4891683;29;20093;-80
2022/04/22 11:40:37;;;;;;;9.50;4.20;;;;;;;;;;4876775;29;20161;-79
2022/04/22 11:43:06;;;;;;;13.80;4.93;;;;;;;;;;4879926;29;20061;-79
2022/04/22 11:45:35;;;;;;;15.57;5.63;;;;;;;;;;4896491;29;20519;-79
2022/04/22 11:48:11;;;;;;;12.77;6.07;;;;;;;;;;4882042;29;20029;-76
2022/04/22 11:50:38;;;;;;;14.38;5.07;;;;;;;;;;4896530;29;20033;-76
2022/04/22 11:53:08;;;;;;;14.40;7.90;;;;;;;;;;4881893;29;20029;-78
2022/04/22 11:55:34;;;;;;;18.33;5.95;;;;;;;;;;4880961;29;20021;-77
2022/04/22 11:58:00;;;;;;;18.33;8.00;;;;;;;;;;4895965;29;20025;-77
2022/04/22 12:05:56;;;;;;;9.35;4.68;;;;;;;;;;4881057;29;20044;-78
2022/04/22 12:08:22;;;;;;;20.63;5.85;;;;;;;;;;4881507;29;20032;-76
2022/04/22 12:10:50;;;;;;;16.08;4.20;;;;;;;;;;4895442;29;20077;-76
2022/04/22 12:13:17;;;;;;;11.95;4.95;;;;;;;;;;4888945;29;20029;-77
2022/04/22 12:15:48;;;;;;;13.90;5.25;;;;;;;;;;4881560;29;20032;-79
2022/04/22 12:18:27;;;;;;;10.02;6.03;;;;;;;;;;4880663;29;20039;-78
2022/04/22 12:20:54;;;;;;;13.25;5.50;;;;;;;;;;4881012;29;20040;-77
2022/04/22 12:23:21;;;;;;;18.45;6.05;;;;;;;;;;4880531;29;20089;-77
2022/04/22 12:25:56;;;;;;;9.93;4.38;;;;;;;;;;4894980;29;20037;-77
2022/04/22 12:28:22;;;;;;;11.82;3.97;;;;;;;;;;4880721;29;20085;-76
2022/04/22 12:30:48;;;;;;;16.58;6.55;;;;;;;;;;4880575;29;20026;-77
2022/04/22 12:33:18;;;;;;;13.55;4.28;;;;;;;;;;4881150;29;20029;-79
2022/04/22 12:35:51;;;;;;;14.00;6.30;;;;;;;;;;4880678;29;20028;-76
2022/04/22 12:38:17;;;;;;;20.83;6.75;;;;;;;;;;4879847;29;20080;-77
2022/04/22 12:40:47;;;;;;;13.85;5.25;;;;;;;;;;4874060;29;20045;-80
2022/04/22 12:43:31;;;;;;;17.52;6.65;;;;;;;;;;4879027;29;20049;-77
2022/04/22 12:54:34;;;;;;;7.72;4.35;;;;;;;;;;4879851;29;20405;-79
2022/04/22 12:57:00;;;;;;;11.32;4.72;;;;;;;;;;4880241;29;20060;-79
2022/04/22 12:59:42;;;;;;;14.45;5.05;;;;;;;;;;4894824;29;20397;-77
2022/04/22 13:02:09;;;;;;;24.08;8.18;;;;;;;;;;4880370;29;20437;-78
2022/04/22 13:04:49;;;;;;;15.55;4.95;;;;;;;;;;4880047;29;20037;-78
2022/04/22 13:07:15;;;;;;;16.90;4.85;;;;;;;;;;4879955;29;20366;-79
2022/04/22 13:09:41;;;;;;;13.35;4.70;;;;;;;;;;4880173;29;20080;-78
2022/04/22 13:12:07;;;;;;;19.30;4.90;;;;;;;;;;4879960;29;20029;-78
2022/04/22 13:14:34;;;;;;;19.77;5.70;;;;;;;;;;4887712;29;20021;-77
2022/04/22 13:17:01;;;;;;;14.88;5.20;;;;;;;;;;4879772;29;20393;-77
2022/04/22 13:19:27;;;;;;;22.88;5.10;;;;;;;;;;4880192;29;20025;-77
2022/04/22 13:21:53;;;;;;;20.20;5.82;;;;;;;;;;4894586;29;20029;-78
2022/04/22 13:24:19;;;;;;;13.57;5.10;;;;;;;;;;4880032;29;20041;-77
2022/04/22 13:26:45;;;;;;;18.05;5.78;;;;;;;;;;4880048;29;20057;-79
2022/04/22 13:29:11;;;;;;;17.42;5.68;;;;;;;;;;4894225;29;20397;-78
2022/04/22 13:31:37;;;;;;;11.10;5.93;;;;;;;;;;4894306;29;20029;-78
2022/04/22 13:34:04;;;;;;;15.85;6.55;;;;;;;;;;4894380;29;20029;-78
2022/04/22 13:36:31;;;;;;;21.52;6.35;;;;;;;;;;4893831;29;20462;-78
2022/04/22 13:38:57;;;;;;;27.65;7.95;;;;;;;;;;4893858;29;20065;-78
2022/04/22 13:41:23;;;;;;;16.48;7.22;;;;;;;;;;4879627;29;20078;-78
2022/04/22 13:43:49;;;;;;;22.13;8.63;;;;;;;;;;4879618;29;20072;-78
2022/04/22 13:54:29;;;;;;;15.15;4.82;;;;;;;;;;4879254;29;20056;-77
2022/04/22 13:56:55;;;;;;;28.58;8.88;;;;;;;;;;4878937;29;20029;-78
2022/04/22 13:59:21;;;;;;;19.00;7.30;;;;;;;;;;4878616;29;20032;-77
2022/04/22 14:01:47;;;;;;;21.27;6.60;;;;;;;;;;4879323;29;20033;-78
2022/04/22 14:04:13;;;;;;;24.75;7.13;;;;;;;;;;4892920;29;20135;-78
2022/04/22 14:06:39;;;;;;;23.52;6.45;;;;;;;;;;4893157;29;20025;-79
2022/04/22 14:09:05;;;;;;;23.88;7.32;;;;;;;;;;4876541;29;20802;-78
2022/04/22 14:11:31;;;;;;;30.08;8.38;;;;;;;;;;4873863;29;20060;-78
2022/04/22 14:13:58;;;;;;;25.60;7.70;;;;;;;;;;4871415;29;20034;-75
2022/04/22 14:16:24;;;;;;;30.73;6.63;;;;;;;;;;4895837;29;20030;-76
2022/04/22 14:18:51;;;;;;;21.20;6.60;;;;;;;;;;4883067;29;20076;-77
2022/04/22 14:21:17;;;;;;;20.45;7.13;;;;;;;;;;4876691;29;20025;-78
2022/04/22 14:23:43;;;;;;;27.75;6.38;;;;;;;;;;4878905;29;20036;-78
2022/04/22 14:26:12;;;;;;;16.23;5.97;;;;;;;;;;4893050;29;20021;-78
2022/04/22 14:28:38;;;;;;;15.70;6.13;;;;;;;;;;4873900;29;20030;-80
2022/04/22 14:31:05;;;;;;;27.92;6.53;;;;;;;;;;4881713;29;20455;-79
2022/04/22 14:33:32;;;;;;;18.48;5.03;;;;;;;;;;4893495;29;20101;-80
2022/04/22 14:35:58;;;;;;;18.08;6.60;;;;;;;;;;4893521;29;20033;-79
2022/04/22 14:38:25;;;;;;;18.02;6.28;;;;;;;;;;4893498;29;20449;-78
2022/04/22 14:40:51;;;;;;;22.08;6.30;;;;;;;;;;4871231;29;20077;-78
2022/04/22 14:43:17;;;;;;;21.95;7.40;;;;;;;;;;4869259;29;20036;-77
2022/04/22 14:45:43;;;;;;;25.65;6.57;;;;;;;;;;4877316;29;20041;-80
2022/04/22 14:48:10;;;;;;;22.13;6.50;;;;;;;;;;4878102;29;20497;-78
2022/04/22 14:50:36;;;;;;;23.35;5.78;;;;;;;;;;4883751;29;20021;-77
2022/04/22 14:53:02;;;;;;;22.13;6.22;;;;;;;;;;4874395;29;20025;-79
2022/04/22 14:55:28;;;;;;;23.88;7.60;;;;;;;;;;4875089;29;20040;-78
2022/04/22 14:57:55;;;;;;;24.27;5.85;;;;;;;;;;4875691;29;20073;-78
2022/04/22 15:00:21;;;;;;;23.15;8.20;;;;;;;;;;4874986;29;20405;-78
2022/04/22 15:02:47;;;;;;;22.48;5.78;;;;;;;;;;4877103;29;20022;-78
2022/04/22 15:05:13;;;;;;;17.58;5.63;;;;;;;;;;4891767;29;20037;-80
2022/04/22 15:07:40;;;;;;;15.45;4.63;;;;;;;;;;4889306;29;20469;-79
2022/04/22 15:10:06;;;;;;;17.13;4.75;;;;;;;;;;4877104;29;20033;-78
2022/04/22 15:12:32;;;;;;;29.67;6.18;;;;;;;;;;4891318;29;20496;-77
2022/04/22 15:14:58;;;;;;;17.25;5.45;;;;;;;;;;4890279;29;20032;-77
2022/04/22 15:25:40;;;;;;;24.33;6.32;;;;;;;;;;4874622;29;20059;-77
2022/04/22 15:28:06;;;;;;;19.17;7.65;;;;;;;;;;4884418;29;20112;-79
2022/04/22 15:30:51;;;;;;;21.20;6.43;;;;;;;;;;4898048;29;20077;-77
2022/04/22 15:33:17;;;;;;;36.72;7.93;;;;;;;;;;4882769;29;20057;-78
2022/04/22 15:35:43;;;;;;;16.73;4.65;;;;;;;;;;4896135;29;20072;-75
2022/04/22 15:38:09;;;;;;;19.95;6.20;;;;;;;;;;4880215;29;20029;-77
2022/04/22 15:40:36;;;;;;;16.73;5.35;;;;;;;;;;4883034;29;20075;-76
2022/04/22 15:43:02;;;;;;;25.65;6.10;;;;;;;;;;4897772;29;20028;-77
2022/04/22 15:45:28;;;;;;;16.45;5.03;;;;;;;;;;4883505;29;20040;-77